createdAt,value
2023-01-24T00:00:02.227Z,101759.48
2023-01-24T00:02:52.993Z,101760.64
2023-01-24T00:05:41.548Z,101761.20
2023-01-24T00:09:05.106Z,101758.64
2023-01-24T00:12:32.698Z,101763.48
2023-01-24T00:15:41.561Z,101764.41
2023-01-24T00:19:09.214Z,101764.31
2023-01-24T00:22:36.957Z,101765.83
2023-01-24T00:26:04.544Z,101765.48
2023-01-24T00:29:32.101Z,101763.55
2023-01-24T00:32:59.784Z,101763.22
2023-01-24T00:36:27.640Z,101763.88
2023-01-24T00:39:51.509Z,101768.16
2023-01-24T00:43:15.588Z,101775.25
2023-01-24T00:46:43.015Z,101777.30
2023-01-24T00:50:10.866Z,101775.27
2023-01-24T00:53:22.544Z,101773.27
2023-01-24T00:56:10.198Z,101779.68
2023-01-24T00:59:37.766Z,101779.65
2023-01-24T01:03:05.621Z,101780.61
2023-01-24T01:06:33.051Z,101779.64
2023-01-24T01:10:00.862Z,101784.84
2023-01-24T01:13:09.674Z,101787.55
2023-01-24T01:16:37.468Z,101784.12
2023-01-24T01:20:05.447Z,101784.63
2023-01-24T01:23:15.429Z,101779.09
2023-01-24T01:26:43.069Z,101782.27
2023-01-24T01:30:10.582Z,101779.30
2023-01-24T01:33:38.214Z,101773.97
2023-01-24T01:37:05.743Z,101770.88
2023-01-24T01:40:33.415Z,101767.88
2023-01-24T01:44:01.036Z,101767.15
2023-01-24T01:47:28.800Z,101769.47
2023-01-24T01:50:56.437Z,101772.84
2023-01-24T01:54:24.294Z,101772.43
2023-01-24T01:57:33.108Z,101767.93
2023-01-24T02:00:48.713Z,101766.95
2023-01-24T02:04:16.477Z,101769.67
2023-01-24T02:07:44.347Z,101773.41
2023-01-24T02:11:12.353Z,101774.52
2023-01-24T02:14:40.157Z,101776.58
2023-01-24T02:18:07.765Z,101785.20
2023-01-24T02:21:19.622Z,101783.55
2023-01-24T02:24:47.117Z,101787.45
2023-01-24T02:27:35.767Z,101785.27
2023-01-24T02:30:48.058Z,101792.86
2023-01-24T02:34:15.867Z,101791.98
2023-01-24T02:37:43.531Z,101786.45
2023-01-24T02:41:11.118Z,101785.38
2023-01-24T02:44:38.795Z,101787.24
2023-01-24T02:48:06.312Z,101787.84
2023-01-24T02:51:34.259Z,101796.39
2023-01-24T02:55:01.910Z,101794.98
2023-01-24T02:58:10.302Z,101793.92
2023-01-24T03:01:37.937Z,101795.10
2023-01-24T03:05:05.457Z,101788.99
2023-01-24T03:08:33.179Z,101787.91
2023-01-24T03:12:00.707Z,101792.67
2023-01-24T03:15:28.290Z,101784.09
2023-01-24T03:18:55.914Z,101782.56
2023-01-24T03:22:23.495Z,101788.25
2023-01-24T03:25:31.531Z,101797.55
2023-01-24T03:28:41.232Z,101801.66
2023-01-24T03:31:57.074Z,101789.23
2023-01-24T03:35:24.692Z,101778.09
2023-01-24T03:38:52.259Z,101776.90
2023-01-24T03:42:00.615Z,101785.70
2023-01-24T03:45:28.213Z,101794.48
2023-01-24T03:48:55.884Z,101809.85
2023-01-24T03:52:19.871Z,101812.08
2023-01-24T03:55:47.337Z,101808.15
2023-01-24T03:59:14.996Z,101807.71
2023-01-24T04:02:23.970Z,101803.29
2023-01-24T04:05:51.439Z,101802.42
2023-01-24T04:09:18.906Z,101804.98
2023-01-24T04:12:46.654Z,101803.91
2023-01-24T04:16:14.245Z,101806.52
2023-01-24T04:19:07.437Z,101809.10
2023-01-24T04:22:34.982Z,101812.13
2023-01-24T04:26:02.526Z,101811.60
2023-01-24T04:28:52.548Z,101813.61
2023-01-24T04:32:19.978Z,101818.57
2023-01-24T04:35:47.535Z,101822.63
2023-01-24T04:39:15.015Z,101826.45
2023-01-24T04:42:45.219Z,101825.27
2023-01-24T04:46:12.750Z,101825.33
2023-01-24T04:49:40.330Z,101831.13
2023-01-24T04:53:07.850Z,101832.23
2023-01-24T04:56:35.639Z,101831.80
2023-01-24T04:59:45.620Z,101837.43
2023-01-24T05:03:13.290Z,101844.27
2023-01-24T05:06:41.030Z,101841.77
2023-01-24T05:10:08.535Z,101849.13
2023-01-24T05:13:36.236Z,101867.02
2023-01-24T05:17:03.945Z,101863.25
2023-01-24T05:20:31.696Z,101856.58
2023-01-24T05:23:40.079Z,101859.45
2023-01-24T05:27:07.850Z,101863.24
2023-01-24T05:30:36.359Z,101861.16
2023-01-24T05:34:04.295Z,101858.33
2023-01-24T05:37:32.186Z,101869.51
2023-01-24T05:41:00.163Z,101872.69
2023-01-24T05:44:28.233Z,101870.37
2023-01-24T05:47:56.027Z,101873.99
2023-01-24T05:51:23.831Z,101878.20
2023-01-24T05:54:51.990Z,101879.79
2023-01-24T05:58:20.115Z,101887.09
2023-01-24T06:01:51.005Z,101893.28
2023-01-24T06:05:18.971Z,101899.64
2023-01-24T06:08:47.026Z,101904.11
2023-01-24T06:12:15.024Z,101906.98
2023-01-24T06:15:42.966Z,101916.46
2023-01-24T06:19:10.816Z,101924.05
2023-01-24T06:22:38.774Z,101932.29
2023-01-24T06:26:06.816Z,101933.55
2023-01-24T06:29:34.572Z,101935.80
2023-01-24T06:33:02.467Z,101937.37
2023-01-24T06:36:30.290Z,101945.95
2023-01-24T06:39:58.202Z,101951.64
2023-01-24T06:43:26.085Z,101954.98
2023-01-24T06:46:54.030Z,101953.85
2023-01-24T06:50:22.178Z,101955.13
2023-01-24T06:53:50.412Z,101962.20
2023-01-24T06:57:18.468Z,101965.80
2023-01-24T07:00:46.601Z,101967.04
2023-01-24T07:04:14.511Z,101968.67
2023-01-24T07:07:42.477Z,101966.37
2023-01-24T07:11:10.657Z,101968.44
2023-01-24T07:14:38.628Z,101971.23
2023-01-24T07:18:06.554Z,101974.69
2023-01-24T07:21:34.665Z,101975.55
2023-01-24T07:25:02.616Z,101973.40
2023-01-24T07:28:30.574Z,101975.64
2023-01-24T07:31:58.669Z,101983.17
2023-01-24T07:35:26.577Z,101983.80
2023-01-24T07:37:56.250Z,101980.98
2023-01-24T07:41:23.939Z,101984.81
2023-01-24T07:44:14.535Z,101984.36
2023-01-24T07:47:42.320Z,101984.73
2023-01-24T07:50:50.946Z,101988.75
2023-01-24T07:54:18.674Z,101984.19
2023-01-24T07:57:46.224Z,101981.43
2023-01-24T08:01:14.060Z,101981.77
2023-01-24T08:04:41.895Z,101985.48
2023-01-24T08:07:31.696Z,101990.14
2023-01-24T08:10:59.486Z,101991.48
2023-01-24T08:14:27.600Z,101990.66
2023-01-24T08:17:17.728Z,101988.34
2023-01-24T08:20:45.801Z,101989.70
2023-01-24T08:23:54.488Z,102001.28
2023-01-24T08:27:02.885Z,102001.35
2023-01-24T08:30:30.342Z,101992.67
2023-01-24T08:33:58.192Z,101991.73
2023-01-24T08:37:05.898Z,101996.85
2023-01-24T08:40:47.822Z,102005.30
2023-01-24T08:43:43.521Z,102003.82
2023-01-24T08:46:31.836Z,101996.67
2023-01-24T08:49:59.922Z,102005.33
2023-01-24T08:53:09.816Z,102011.38
2023-01-24T08:56:19.729Z,102018.09
2023-01-24T08:59:47.632Z,102020.42
2023-01-24T09:03:15.809Z,102023.80
2023-01-24T09:06:43.845Z,102028.71
2023-01-24T09:10:11.736Z,102030.83
2023-01-24T09:13:39.817Z,102027.63
2023-01-24T09:17:07.744Z,102029.85
2023-01-24T09:20:35.847Z,102021.25
2023-01-24T09:24:03.972Z,102027.14
2023-01-24T09:27:31.775Z,102017.03
2023-01-24T09:30:59.702Z,102025.13
2023-01-24T09:34:27.498Z,102020.85
2023-01-24T09:37:55.316Z,102024.65
2023-01-24T09:41:23.521Z,102018.60
2023-01-24T09:44:51.165Z,102023.73
2023-01-24T09:48:19.303Z,102016.70
2023-01-24T09:51:47.048Z,102015.46
2023-01-24T09:55:15.119Z,102014.84
